• Join FlightAware (Why Join?)
  • Login
  • US Flag 
06:25AM EDT


 

Airport Tracker/Info


-or-


 

Live Flight TrackerFlight Track Log ✈ SWA1435 ✈ 20-May-2013 ✈ KDAL - KSTL

Flight Track Log - Related Links

Times and Time Zones

All times are in EDT time to prevent confusion due to time zone crossing. See the SWA1435 flight status page for this flight to view local times or setup timezone preferences in your user account.

Time Position Orientation Groundspeed Altitude Reporting Facility
EDT Latitude Longitude Course Direction KTS MPH feet Rate Location/Type
07:09AM 32.8333 -96.8333 128° Southeast 158 182 1,300  Level Dallas / Fort Worth TRACON
07:10AM 32.8000 -96.7833 128° Southeast 207 238 3,700 2,340 Climbing Dallas / Fort Worth TRACON
07:11AM 32.7833 -96.7000 103° East 262 302 6,500 2,580 Climbing Dallas / Fort Worth TRACON
07:14AM 32.9672 -96.7103 357° North 297 342 12,300 2,340 Climbing Fort Worth Center
07:15AM 33.0508 -96.7294 349° North 320 368 14,300 2,400 Climbing Fort Worth Center
07:16AM 33.1594 -96.7558 349° North 350 403 17,100 2,520 Climbing Fort Worth Center
07:17AM 33.2514 -96.7775 349° North 362 417 19,400 2,340 Climbing Fort Worth Center
07:18AM 33.3622 -96.8042 349° North 368 423 21,800 1,980 Climbing Fort Worth Center
07:19AM 33.4603 -96.8133 356° North 374 430 23,400 1,620 Climbing Fort Worth Center
07:20AM 33.5664 -96.7528 25° Northeast 387 445 25,100 1,560 Climbing Fort Worth Center
07:21AM 33.6725 -96.6847 28° Northeast 404 465 26,600 1,440 Climbing Fort Worth Center
07:22AM 33.7783 -96.6039 32° Northeast 422 486 28,000 1,380 Climbing Fort Worth Center
07:23AM 33.8800 -96.5178 35° Northeast 443 510 29,400 1,380 Climbing Fort Worth Center
07:24AM 33.9858 -96.4267 36° Northeast 457 526 30,800 1,500 Climbing Fort Worth Center
07:25AM 34.0936 -96.3325 36° Northeast 463 533 32,400 1,740 Climbing Fort Worth Center
07:26AM 34.1889 -96.2461 37° Northeast 457 526 34,300 1,500 Climbing Fort Worth Center
07:27AM 34.2922 -96.1542 36° Northeast 457 526 35,400 1,020 Climbing Fort Worth Center
07:28AM 34.3936 -96.0644 36° Northeast 457 526 36,400 780 Climbing Fort Worth Center
07:29AM 34.4969 -95.9722 36° Northeast 452 520 37,000 300 Climbing Fort Worth Center
07:30AM 34.6000 -95.8822 36° Northeast 452 520 37,000  Level Fort Worth Center
07:31AM 34.7053 -95.7919 35° Northeast 452 520 37,000  Level Fort Worth Center
07:32AM 34.8106 -95.6964 37° Northeast 459 528 37,000  Level Fort Worth Center
07:33AM 34.9178 -95.6081 34° Northeast 459 528 37,000  Level Fort Worth Center
07:34AM 35.0869 -95.4511 37° Northeast 466 536 37,000  Level Kansas City Center
07:35AM 35.1689 -95.3814 35° Northeast 467 537 37,000  Level Memphis Center
07:36AM 35.2708 -95.2883 37° Northeast 467 537 37,000  Level Memphis Center
07:37AM 35.3789 -95.1903 36° Northeast 467 537 37,000  Level Memphis Center
07:38AM 35.4825 -95.0969 36° Northeast 467 537 37,000  Level Memphis Center
07:39AM 35.5906 -95.0008 36° Northeast 467 537 37,000  Level Memphis Center
07:40AM 35.6942 -94.9044 37° Northeast 467 537 37,000  Level Memphis Center
07:41AM 35.7978 -94.8053 38° Northeast 467 537 37,000  Level Memphis Center
07:42AM 35.9014 -94.7083 37° Northeast 467 537 37,000  Level Memphis Center
07:43AM 36.0047 -94.6111 37° Northeast 467 537 37,000  Level Memphis Center
07:45AM 36.2567 -94.3797 36° Northeast 464 534 37,000  Level Kansas City Center
07:46AM 36.3600 -94.2833 37° Northeast 465 535 37,000  Level Kansas City Center
07:47AM 36.4639 -94.1864 37° Northeast 467 537 37,000  Level Kansas City Center
07:48AM 36.5669 -94.0892 37° Northeast 465 535 37,000  Level Kansas City Center
07:49AM 36.6703 -93.9911 37° Northeast 466 536 37,000  Level Kansas City Center
07:50AM 36.7753 -93.8944 36° Northeast 468 539 37,000  Level Kansas City Center
07:51AM 36.8786 -93.7939 38° Northeast 469 540 37,000  Level Kansas City Center
07:52AM 36.9875 -93.6894 37° Northeast 470 541 37,000  Level Kansas City Center
07:54AM 37.0919 -93.5883 38° Northeast 473 544 37,000  Level Kansas City Center
07:55AM 37.1964 -93.4875 38° Northeast 472 543 37,000  Level Kansas City Center
07:56AM 37.3031 -93.3872 37° Northeast 475 547 37,000  Level Kansas City Center
07:57AM 37.4058 -93.2831 39° Northeast 473 544 37,000  Level Kansas City Center
07:58AM 37.4997 -93.1669 44° Northeast 472 543 37,000  Level Kansas City Center
07:59AM 37.5972 -93.0553 42° Northeast 471 542 37,000  Level Kansas City Center
08:00AM 37.6953 -92.9400 43° Northeast 477 549 37,000  Level Kansas City Center
08:01AM 37.7911 -92.8261 43° Northeast 473 544 37,000  Level Kansas City Center
08:02AM 37.9039 -92.6942 43° Northeast 477 549 37,000 -180 Level Kansas City Center
08:03AM 37.9783 -92.5567 55° Northeast 477 549 36,700 -1,500 Descending Kansas City Center
08:04AM 38.0517 -92.4231 55° Northeast 466 536 34,000 -2,880 Descending Kansas City Center
08:05AM 38.1275 -92.2850 55° Northeast 475 547 30,900 -2,820 Descending Kansas City Center
08:06AM 38.1953 -92.1556 56° Northeast 470 541 28,300 -2,460 Descending Kansas City Center
08:07AM 38.2672 -92.0194 56° Northeast 463 533 26,000 -2,340 Descending Kansas City Center
08:08AM 38.3378 -91.8853 56° Northeast 456 525 23,600 -2,400 Descending Kansas City Center
08:09AM 38.4089 -91.7517 56° Northeast 454 522 21,200 -2,340 Descending Kansas City Center
08:10AM 38.4764 -91.6206 57° Northeast 444 511 18,900 -2,520 Descending Kansas City Center
08:11AM 38.5553 -91.4703 56° Northeast 426 490 16,100 -2,340 Descending Kansas City Center
08:13AM 38.6722 -91.2458 56° Northeast 413 475 11,800 -1,980 Descending Kansas City Center
08:14AM 38.7000 -91.0931 77° East 360 414 10,100 -1,560 Descending Kansas City Center
08:15AM 38.7456 -90.9889 61° Northeast 337 388 8,700 -1,380 Descending Kansas City Center
08:16AM 38.7919 -90.8883 59° Northeast 329 379 7,300 -1,320 Descending Kansas City Center
08:17AM 38.8339 -90.7931 61° Northeast 310 357 6,100 -1,380 Descending Kansas City Center
08:18AM 38.8717 -90.6972 63° Northeast 300 345 4,600 -1,140 Descending Kansas City Center
08:19AM 38.8553 -90.6064 103° East 271 312 3,900 -600 Descending Kansas City Center
08:20AM 38.8331 -90.5250 109° East 244 281 3,500 -720 Descending Kansas City Center
08:21AM 38.7989 -90.4603 124° Southeast 224 258 2,500 -1,020 Descending Kansas City Center
08:22AM 38.7728 -90.4069 122° Southeast 191 220 1,500 -960 Descending Kansas City Center
08:23AM 38.7511 -90.3647 123° Southeast 159 183 600 -900 Descending Kansas City Center
08:25AM 38.7487 -90.3700 117° Southeast  Level Estimated
08:32AM 38.7487 -90.3700 333° Northwest  Level Estimated